createdAt,value
2019-01-17T00:01:05.319Z,96923.77
2019-01-17T00:04:00.046Z,96929.17
2019-01-17T00:06:55.761Z,96929.97
2019-01-17T00:09:45.092Z,96934.92
2019-01-17T00:12:33.639Z,96934.79
2019-01-17T00:15:24.622Z,96934.19
2019-01-17T00:18:12.713Z,96932.09
2019-01-17T00:21:20.230Z,96934.88
2019-01-17T00:24:12.050Z,96925.72
2019-01-17T00:26:50.443Z,96925.56
2019-01-17T00:29:37.999Z,96923.39
2019-01-17T00:32:20.659Z,96921.57
2019-01-17T00:35:12.907Z,96925.58
2019-01-17T00:37:58.697Z,96929.02
2019-01-17T00:40:55.440Z,96940.27
2019-01-17T00:43:39.891Z,96931.42
2019-01-17T00:46:19.226Z,96939.06
2019-01-17T00:49:06.038Z,96945.45
2019-01-17T00:52:07.494Z,96939.69
2019-01-17T00:55:05.883Z,96944.79
2019-01-17T00:58:01.496Z,96950.47
2019-01-17T01:00:53.930Z,96951.97
2019-01-17T01:03:38.088Z,96960.89
2019-01-17T01:06:36.535Z,96956.27
2019-01-17T01:09:21.925Z,96967.75
2019-01-17T01:12:26.580Z,96967.97
2019-01-17T01:15:15.958Z,96980.97
2019-01-17T01:17:58.559Z,96967.53
2019-01-17T01:20:46.216Z,96978.44
2019-01-17T01:23:41.515Z,96979.60
2019-01-17T01:26:42.175Z,96984.44
2019-01-17T01:29:24.540Z,96983.37
2019-01-17T01:32:16.985Z,96987.86
2019-01-17T01:35:01.365Z,96977.56
2019-01-17T01:37:59.863Z,96982.91
2019-01-17T01:40:43.679Z,96982.61
2019-01-17T01:43:42.256Z,96979.26
2019-01-17T01:46:21.869Z,96983.74
2019-01-17T01:49:11.147Z,96982.41
2019-01-17T01:52:00.438Z,96974.95
2019-01-17T01:54:30.880Z,96976.38
2019-01-17T01:57:01.347Z,96980.94
2019-01-17T01:59:31.751Z,96966.41
2019-01-17T02:02:02.178Z,96968.46
2019-01-17T02:04:32.526Z,96963.70
2019-01-17T02:07:02.954Z,96965.06
2019-01-17T02:09:33.390Z,96963.20
2019-01-17T02:12:03.803Z,96961.89
2019-01-17T02:14:34.242Z,96963.11
2019-01-17T02:17:04.874Z,96957.46
2019-01-17T02:19:35.311Z,96960.25
2019-01-17T02:22:05.723Z,96958.31
2019-01-17T02:24:36.124Z,96953.77
2019-01-17T02:27:06.600Z,96962.17
2019-01-17T02:29:37.151Z,96957.39
2019-01-17T02:32:07.670Z,96962.83
2019-01-17T02:34:38.072Z,96956.73
2019-01-17T02:37:08.409Z,96959.61
2019-01-17T02:39:38.852Z,96958.62
2019-01-17T02:42:09.266Z,96958.20
2019-01-17T02:44:39.633Z,96949.56
2019-01-17T02:47:10.125Z,96943.77
2019-01-17T02:49:40.546Z,96941.86
2019-01-17T02:52:10.975Z,96937.19
2019-01-17T02:54:41.404Z,96933.34
2019-01-17T02:57:11.810Z,96924.39
2019-01-17T02:59:42.287Z,96932.60
2019-01-17T03:02:12.798Z,96924.48
2019-01-17T03:04:43.176Z,96928.70
2019-01-17T03:07:13.558Z,96933.05
2019-01-17T03:09:44.059Z,96932.50
2019-01-17T03:12:14.531Z,96928.95
2019-01-17T03:14:45.046Z,96936.25
2019-01-17T03:17:15.520Z,96931.52
2019-01-17T03:19:45.974Z,96921.06
2019-01-17T03:22:16.406Z,96922.78
2019-01-17T03:24:46.600Z,96909.47
2019-01-17T03:27:17.027Z,96910.69
2019-01-17T03:29:47.471Z,96899.67
2019-01-17T03:32:17.879Z,96901.28
2019-01-17T03:34:48.258Z,96886.34
2019-01-17T03:37:18.592Z,96894.88
2019-01-17T03:39:48.911Z,96894.80
2019-01-17T03:42:19.376Z,96892.84
2019-01-17T03:44:49.831Z,96895.47
2019-01-17T03:47:20.154Z,96893.17
2019-01-17T03:49:50.505Z,96899.23
2019-01-17T03:52:21.030Z,96891.60
2019-01-17T03:54:53.877Z,96887.67
2019-01-17T03:57:23.455Z,96884.91
2019-01-17T03:59:54.929Z,96881.30
2019-01-17T04:02:25.402Z,96878.91
2019-01-17T04:04:55.694Z,96873.31
2019-01-17T04:07:26.291Z,96878.37
2019-01-17T04:09:56.671Z,96869.13
2019-01-17T04:12:27.070Z,96875.44
2019-01-17T04:14:57.371Z,96874.76
2019-01-17T04:17:27.796Z,96872.15
2019-01-17T04:19:58.100Z,96864.88
2019-01-17T04:22:28.622Z,96865.00
2019-01-17T04:24:59.004Z,96861.71
2019-01-17T04:27:29.431Z,96860.84
2019-01-17T04:29:59.769Z,96860.43
2019-01-17T04:32:30.286Z,96849.80
2019-01-17T04:35:00.550Z,96844.33
2019-01-17T04:37:31.017Z,96846.16
2019-01-17T04:40:01.487Z,96838.23
2019-01-17T04:42:31.874Z,96842.42
2019-01-17T04:45:02.093Z,96837.47
2019-01-17T04:47:32.416Z,96836.95
2019-01-17T04:50:02.780Z,96829.21
2019-01-17T04:52:33.135Z,96827.97
2019-01-17T04:55:05.478Z,96830.05
2019-01-17T04:57:35.762Z,96820.81
2019-01-17T05:00:11.519Z,96831.44
2019-01-17T05:02:41.969Z,96823.55
2019-01-17T05:05:12.694Z,96821.80
2019-01-17T05:07:43.151Z,96821.55
2019-01-17T05:10:14.159Z,96822.83
2019-01-17T05:12:46.633Z,96814.22
2019-01-17T05:15:23.915Z,96809.45
2019-01-17T05:17:54.214Z,96811.23
2019-01-17T05:20:24.671Z,96801.16
2019-01-17T05:22:55.128Z,96797.95
2019-01-17T05:25:25.539Z,96792.66
2019-01-17T05:27:56.003Z,96791.53
2019-01-17T05:30:26.285Z,96792.09
2019-01-17T05:32:56.393Z,96787.06
2019-01-17T05:35:26.725Z,96783.84
2019-01-17T05:37:57.339Z,96788.06
2019-01-17T05:40:28.012Z,96782.11
2019-01-17T05:42:58.449Z,96779.09
2019-01-17T05:45:28.851Z,96774.36
2019-01-17T05:48:03.393Z,96767.77
2019-01-17T05:50:33.689Z,96764.41
2019-01-17T05:53:04.124Z,96767.28
2019-01-17T05:55:35.798Z,96768.52
2019-01-17T05:58:07.218Z,96761.13
2019-01-17T06:00:37.756Z,96769.59
2019-01-17T06:03:08.191Z,96762.47
2019-01-17T06:05:38.535Z,96756.17
2019-01-17T06:08:08.914Z,96747.75
2019-01-17T06:10:39.313Z,96750.78
2019-01-17T06:13:09.909Z,96750.58
2019-01-17T06:15:41.226Z,96741.42
2019-01-17T06:18:11.686Z,96736.08
2019-01-17T06:20:43.143Z,96739.25
2019-01-17T06:23:13.460Z,96739.31
2019-01-17T06:25:43.880Z,96737.97
2019-01-17T06:28:15.336Z,96731.64
2019-01-17T06:30:47.800Z,96722.27
2019-01-17T06:33:18.225Z,96716.92
2019-01-17T06:35:48.551Z,96715.21
2019-01-17T06:38:19.018Z,96709.05
2019-01-17T06:40:49.504Z,96715.81
2019-01-17T06:43:19.787Z,96712.42
2019-01-17T06:45:50.376Z,96709.27
2019-01-17T06:48:20.983Z,96711.48
2019-01-17T06:50:51.296Z,96709.98
2019-01-17T06:53:21.763Z,96701.84
2019-01-17T06:55:52.096Z,96709.27
2019-01-17T06:58:22.587Z,96701.96
2019-01-17T07:00:53.092Z,96709.27
2019-01-17T07:03:23.420Z,96702.16
2019-01-17T07:05:53.794Z,96707.13
2019-01-17T07:08:24.232Z,96709.55
2019-01-17T07:10:54.638Z,96716.11
2019-01-17T07:13:24.959Z,96710.53
2019-01-17T07:15:55.294Z,96709.62
2019-01-17T07:18:25.721Z,96715.08
2019-01-17T07:20:56.025Z,96712.73
2019-01-17T07:23:26.499Z,96717.78
2019-01-17T07:25:57.172Z,96715.57
2019-01-17T07:28:27.736Z,96724.31
2019-01-17T07:30:58.098Z,96717.20
2019-01-17T07:33:28.547Z,96718.74
2019-01-17T07:35:59.027Z,96722.94
2019-01-17T07:38:30.151Z,96726.89
2019-01-17T07:41:00.612Z,96726.45
2019-01-17T07:43:31.035Z,96725.86
2019-01-17T07:46:01.471Z,96727.70
2019-01-17T07:48:31.923Z,96731.45
2019-01-17T07:51:02.173Z,96736.23
2019-01-17T07:53:32.607Z,96734.11
2019-01-17T07:56:02.930Z,96728.58
2019-01-17T07:58:33.369Z,96725.09
2019-01-17T08:01:03.911Z,96727.12
2019-01-17T08:03:34.375Z,96732.03
2019-01-17T08:06:05.432Z,96733.88
2019-01-17T08:08:35.858Z,96746.58
2019-01-17T08:11:06.906Z,96739.98
2019-01-17T08:13:37.363Z,96744.55
2019-01-17T08:16:07.812Z,96738.14
2019-01-17T08:18:38.206Z,96747.86
2019-01-17T08:21:08.618Z,96754.59
2019-01-17T08:23:38.942Z,96747.13
2019-01-17T08:26:09.465Z,96744.23
2019-01-17T08:28:39.975Z,96742.61
2019-01-17T08:31:10.398Z,96746.90
2019-01-17T08:33:40.930Z,96744.53
2019-01-17T08:36:11.446Z,96740.86
2019-01-17T08:38:41.825Z,96751.47
2019-01-17T08:41:12.199Z,96762.33
2019-01-17T08:43:42.614Z,96763.64
2019-01-17T08:46:12.986Z,96768.55
2019-01-17T08:48:43.379Z,96773.58
2019-01-17T08:51:13.836Z,96773.95
2019-01-17T08:53:44.258Z,96788.51
2019-01-17T08:56:14.830Z,96786.29
2019-01-17T08:58:45.179Z,96782.45
2019-01-17T09:01:15.790Z,96788.44
2019-01-17T09:03:46.172Z,96781.80
2019-01-17T09:06:16.695Z,96787.19
2019-01-17T09:08:47.125Z,96779.83
2019-01-17T09:11:17.823Z,96774.75
2019-01-17T09:13:48.136Z,96779.24
2019-01-17T09:16:18.616Z,96784.30
2019-01-17T09:18:49.204Z,96777.69
2019-01-17T09:21:19.622Z,96780.69
2019-01-17T09:23:50.103Z,96774.23
2019-01-17T09:26:20.586Z,96775.03
2019-01-17T09:28:51.038Z,96772.16
2019-01-17T09:31:21.494Z,96779.08
2019-01-17T09:33:51.755Z,96782.58
2019-01-17T09:36:22.006Z,96784.42
2019-01-17T09:38:52.349Z,96782.00
2019-01-17T09:41:22.839Z,96784.89
2019-01-17T09:43:53.194Z,96774.96
2019-01-17T09:46:23.611Z,96786.59
2019-01-17T09:48:53.859Z,96790.38
2019-01-17T09:51:24.345Z,96784.75
2019-01-17T09:53:54.777Z,96781.78
2019-01-17T09:56:25.191Z,96782.66
2019-01-17T09:58:55.580Z,96790.78
2019-01-17T10:01:26.186Z,96791.27
2019-01-17T10:03:56.516Z,96798.75
2019-01-17T10:06:26.941Z,96788.34
2019-01-17T10:08:57.457Z,96787.52
2019-01-17T10:11:27.899Z,96785.91
2019-01-17T10:13:58.145Z,96784.52
2019-01-17T10:17:27.687Z,96791.73
2019-01-17T10:20:41.975Z,96791.44
2019-01-17T10:23:52.574Z,96793.34
2019-01-17T10:27:13.708Z,96799.16
2019-01-17T10:30:51.794Z,96807.68
2019-01-17T10:33:43.747Z,96799.22
2019-01-17T10:37:22.926Z,96798.86
2019-01-17T10:40:54.346Z,96793.55
2019-01-17T10:44:04.468Z,96796.57
2019-01-17T10:47:27.088Z,96801.58
2019-01-17T10:51:14.838Z,96795.70
2019-01-17T10:54:51.744Z,96799.09
2019-01-17T10:58:04.531Z,96809.06
2019-01-17T11:01:20.490Z,96802.01
2019-01-17T11:04:43.125Z,96802.83
2019-01-17T11:07:54.009Z,96802.83
2019-01-17T11:10:56.156Z,96794.17
2019-01-17T11:14:12.463Z,96797.62
2019-01-17T11:17:25.785Z,96812.62
2019-01-17T11:20:18.988Z,96799.65
2019-01-17T11:23:32.625Z,96805.02
2019-01-17T11:26:43.204Z,96814.08
2019-01-17T11:29:26.782Z,96809.45
2019-01-17T11:32:58.646Z,96809.31
2019-01-17T11:36:19.381Z,96809.30
2019-01-17T11:39:35.535Z,96807.10
2019-01-17T11:42:55.405Z,96817.55
2019-01-17T11:46:30.611Z,96809.42
2019-01-17T11:49:58.544Z,96802.86
2019-01-17T11:53:26.973Z,96804.03
2019-01-17T11:56:32.690Z,96808.16
2019-01-17T11:59:34.253Z,96809.19
2019-01-17T12:02:52.368Z,96808.08
2019-01-17T12:05:22.726Z,96802.76
2019-01-17T12:07:53.107Z,96813.89
2019-01-17T12:10:23.429Z,96810.74
2019-01-17T12:12:54.160Z,96809.02
2019-01-17T12:15:24.557Z,96811.97
2019-01-17T12:17:55.009Z,96805.52
2019-01-17T12:20:26.775Z,96796.84
2019-01-17T12:22:57.129Z,96790.62
2019-01-17T12:25:27.427Z,96796.05
2019-01-17T12:27:57.756Z,96796.66
2019-01-17T12:30:29.173Z,96797.63
2019-01-17T12:32:59.502Z,96791.88
2019-01-17T12:35:29.843Z,96794.81
2019-01-17T12:38:00.182Z,96784.98
2019-01-17T12:40:30.320Z,96783.22
2019-01-17T12:43:00.711Z,96776.50
2019-01-17T12:45:31.052Z,96773.36
2019-01-17T12:48:01.484Z,96770.19
2019-01-17T12:50:31.938Z,96776.22
2019-01-17T12:53:02.317Z,96766.90
2019-01-17T12:55:32.750Z,96763.80
2019-01-17T12:58:03.060Z,96771.00
2019-01-17T13:00:33.418Z,96775.08
2019-01-17T13:03:03.610Z,96773.55
2019-01-17T13:05:39.916Z,96770.09
2019-01-17T13:08:10.313Z,96773.38
2019-01-17T13:10:40.752Z,96767.74
2019-01-17T13:13:17.044Z,96767.66
2019-01-17T13:15:47.456Z,96761.80
2019-01-17T13:18:17.874Z,96754.98
2019-01-17T13:20:51.487Z,96751.94
2019-01-17T13:23:21.922Z,96751.87
2019-01-17T13:25:54.447Z,96746.16
2019-01-17T13:28:24.882Z,96754.31
2019-01-17T13:30:57.325Z,96747.98
2019-01-17T13:33:27.759Z,96750.22
2019-01-17T13:35:58.490Z,96752.26
2019-01-17T13:38:28.848Z,96747.05
2019-01-17T13:41:01.141Z,96740.20
2019-01-17T13:43:31.456Z,96744.83
2019-01-17T13:46:01.801Z,96746.73
2019-01-17T13:48:40.012Z,96747.72
2019-01-17T13:51:10.420Z,96733.16
2019-01-17T13:53:40.794Z,96740.98
2019-01-17T13:56:11.199Z,96753.64
2019-01-17T13:58:41.455Z,96742.16
2019-01-17T14:01:11.843Z,96755.54
2019-01-17T14:03:42.246Z,96752.77
2019-01-17T14:06:12.591Z,96752.18
2019-01-17T14:08:42.946Z,96771.52
2019-01-17T14:11:13.211Z,96763.86
2019-01-17T14:13:43.593Z,96767.26
2019-01-17T14:16:13.963Z,96758.08
2019-01-17T14:18:44.358Z,96773.41
2019-01-17T14:21:14.725Z,96762.53
2019-01-17T14:23:45.112Z,96773.30
2019-01-17T14:26:15.547Z,96773.19
2019-01-17T14:28:45.935Z,96772.31
2019-01-17T14:31:16.362Z,96778.48
2019-01-17T14:33:46.596Z,96784.44
2019-01-17T14:36:17.075Z,96783.84
2019-01-17T14:38:47.413Z,96777.50
2019-01-17T14:41:17.827Z,96792.80
2019-01-17T14:43:48.021Z,96785.43
2019-01-17T14:46:18.525Z,96778.61
2019-01-17T14:48:48.762Z,96785.57
2019-01-17T14:51:19.155Z,96783.56
2019-01-17T14:53:49.526Z,96790.17
2019-01-17T14:56:19.995Z,96794.27
2019-01-17T14:58:50.312Z,96797.50
2019-01-17T15:01:20.765Z,96816.26
2019-01-17T15:03:51.166Z,96817.84
2019-01-17T15:06:21.663Z,96829.13
2019-01-17T15:08:51.989Z,96835.81
2019-01-17T15:11:22.372Z,96839.44
2019-01-17T15:13:52.616Z,96825.52
2019-01-17T15:16:22.973Z,96829.80
2019-01-17T15:18:53.237Z,96835.25
2019-01-17T15:21:23.789Z,96829.67
2019-01-17T15:23:54.174Z,96831.52
2019-01-17T15:26:24.317Z,96827.30
2019-01-17T15:28:54.597Z,96839.91
2019-01-17T15:31:25.045Z,96835.27
2019-01-17T15:33:55.271Z,96835.08
2019-01-17T15:36:25.532Z,96841.80
2019-01-17T15:38:55.847Z,96838.14
2019-01-17T15:41:28.628Z,96838.62
2019-01-17T15:43:58.348Z,96853.41
2019-01-17T15:46:28.752Z,96863.05
2019-01-17T15:48:59.202Z,96865.57
2019-01-17T15:51:29.585Z,96863.48
2019-01-17T15:53:59.767Z,96868.80
2019-01-17T15:56:30.013Z,96873.05
2019-01-17T15:59:00.134Z,96875.83
2019-01-17T16:01:30.616Z,96883.38
2019-01-17T16:04:00.941Z,96890.05
2019-01-17T16:06:31.257Z,96884.59
2019-01-17T16:09:01.487Z,96870.71
2019-01-17T16:11:32.066Z,96880.47
2019-01-17T16:14:02.330Z,96889.81
2019-01-17T16:16:32.760Z,96895.28
2019-01-17T16:19:03.024Z,96907.45
2019-01-17T16:21:34.593Z,96908.02
2019-01-17T16:24:05.085Z,96922.93
2019-01-17T16:26:35.593Z,96938.99
2019-01-17T16:29:05.994Z,96926.58
2019-01-17T16:31:36.397Z,96924.15
2019-01-17T16:34:06.802Z,96925.43
2019-01-17T16:36:37.203Z,96917.00
2019-01-17T16:39:10.235Z,96913.15
2019-01-17T16:41:40.491Z,96911.45
2019-01-17T16:44:10.878Z,96923.19
2019-01-17T16:46:41.371Z,96913.92
2019-01-17T16:49:11.733Z,96906.06
2019-01-17T16:52:01.264Z,96912.43
2019-01-17T16:54:43.987Z,96930.23
2019-01-17T16:57:33.529Z,96930.65
2019-01-17T17:00:23.238Z,96930.50
2019-01-17T17:03:12.759Z,96940.80
2019-01-17T17:05:55.054Z,96946.89
2019-01-17T17:08:44.457Z,96922.44
2019-01-17T17:11:15.557Z,96934.14
2019-01-17T17:13:45.934Z,96961.61
2019-01-17T17:16:16.265Z,96987.12
2019-01-17T17:19:05.844Z,97006.56
2019-01-17T17:21:36.246Z,97021.17
2019-01-17T17:24:06.576Z,97033.73
2019-01-17T17:26:36.920Z,97044.17
2019-01-17T17:29:25.939Z,97027.36
2019-01-17T17:32:07.390Z,97034.67
2019-01-17T17:34:37.814Z,97047.17
2019-01-17T17:37:08.163Z,97055.56
2019-01-17T17:39:44.478Z,97065.51
2019-01-17T17:42:14.874Z,97065.14
2019-01-17T17:44:45.111Z,97069.43
2019-01-17T17:47:15.513Z,97074.36
2019-01-17T17:49:45.987Z,97071.53
2019-01-17T17:52:16.191Z,97070.42
2019-01-17T17:54:46.588Z,97086.56
2019-01-17T17:57:36.770Z,97094.39
2019-01-17T18:03:25.888Z,97083.70
2019-01-17T18:05:56.500Z,97096.14
2019-01-17T18:08:45.962Z,97112.32
2019-01-17T18:11:35.467Z,97109.89
2019-01-17T18:14:18.160Z,97116.36
2019-01-17T18:17:07.799Z,97113.73
2019-01-17T18:19:50.116Z,97121.19
2019-01-17T18:22:39.714Z,97125.91
2019-01-17T18:25:21.998Z,97125.00
2019-01-17T18:28:11.657Z,97129.48
2019-01-17T18:30:56.039Z,97132.63
2019-01-17T18:33:45.629Z,97060.91
2019-01-17T18:36:27.524Z,97141.16
2019-01-17T18:39:17.303Z,97146.98
2019-01-17T18:42:02.009Z,97134.47
2019-01-17T18:44:51.557Z,97145.59
2019-01-17T18:47:33.697Z,97145.69
2019-01-17T18:50:25.642Z,97067.09
2019-01-17T18:53:08.323Z,97147.94
2019-01-17T18:55:57.950Z,97147.33
2019-01-17T18:58:40.941Z,97157.77
2019-01-17T19:01:30.499Z,97162.41
2019-01-17T19:04:12.444Z,97154.72
2019-01-17T19:07:01.942Z,97168.48
2019-01-17T19:09:44.409Z,97162.11
2019-01-17T19:12:33.891Z,97170.49
2019-01-17T19:15:17.787Z,97181.13
2019-01-17T19:18:07.278Z,97189.54
2019-01-17T19:20:37.823Z,97144.11
2019-01-17T19:23:27.337Z,97201.75
2019-01-17T19:26:16.886Z,97205.19
2019-01-17T19:28:59.343Z,97217.70
2019-01-17T19:31:48.952Z,97224.73
2019-01-17T19:34:31.819Z,97223.73
2019-01-17T19:37:23.510Z,97234.19
2019-01-17T19:40:06.317Z,97235.30
2019-01-17T19:42:56.059Z,97236.52
2019-01-17T19:45:38.395Z,97222.05
2019-01-17T19:48:20.572Z,97212.16
2019-01-17T19:51:10.039Z,97234.52
2019-01-17T19:53:51.872Z,97230.45
2019-01-17T19:56:41.390Z,97221.55
2019-01-17T19:59:23.074Z,97242.09
2019-01-17T20:02:12.679Z,97207.48
2019-01-17T20:04:54.966Z,97227.23
2019-01-17T20:07:44.618Z,97247.70
2019-01-17T20:10:27.863Z,97214.41
2019-01-17T20:13:17.364Z,97199.36
2019-01-17T20:15:59.699Z,97246.91
2019-01-17T20:18:49.214Z,97181.16
2019-01-17T20:21:31.629Z,97244.63
2019-01-17T20:24:21.228Z,97258.11
2019-01-17T20:27:04.127Z,97266.18
2019-01-17T20:29:53.619Z,97276.57
2019-01-17T20:32:36.012Z,97288.60
2019-01-17T20:35:25.557Z,97248.38
2019-01-17T20:38:07.426Z,97292.52
2019-01-17T20:40:58.337Z,97300.23
2019-01-17T20:49:43.410Z,97274.73
2019-01-17T20:52:32.979Z,97288.75
2019-01-17T20:55:22.638Z,97285.12
2019-01-17T20:58:04.911Z,97207.94
2019-01-17T21:01:15.696Z,97287.21
2019-01-17T21:04:07.177Z,97299.05
2019-01-17T21:06:56.636Z,97298.23
2019-01-17T21:09:46.381Z,97308.34
2019-01-17T21:12:28.446Z,97312.37
2019-01-17T21:15:17.981Z,97314.20
2019-01-17T21:17:59.933Z,97245.36
2019-01-17T21:20:49.439Z,97315.61
2019-01-17T21:23:31.525Z,97315.08
2019-01-17T21:26:21.018Z,97326.80
2019-01-17T21:29:03.833Z,97326.81
2019-01-17T21:31:53.476Z,97322.25
2019-01-17T21:34:23.744Z,97342.56
2019-01-17T21:37:13.219Z,97345.09
2019-01-17T21:39:55.556Z,97360.53
2019-01-17T21:42:45.091Z,97360.81
2019-01-17T21:45:27.611Z,97357.79
2019-01-17T21:48:17.244Z,97356.79
2019-01-17T21:50:59.733Z,97361.33
2019-01-17T21:53:49.223Z,97365.48
2019-01-17T21:56:31.557Z,97362.45
2019-01-17T21:59:13.678Z,97373.95
2019-01-17T22:01:44.068Z,97381.03
2019-01-17T22:04:14.414Z,97380.50
2019-01-17T22:07:03.911Z,97386.78
2019-01-17T22:09:36.394Z,97401.00
2019-01-17T22:12:07.053Z,97419.80
2019-01-17T22:14:37.340Z,97419.12
2019-01-17T22:17:08.826Z,97427.00
2019-01-17T22:19:41.418Z,97435.81
2019-01-17T22:22:12.164Z,97435.52
2019-01-17T22:24:42.628Z,97440.32
2019-01-17T22:27:18.790Z,97440.77
2019-01-17T22:29:53.220Z,97443.39
2019-01-17T22:32:23.731Z,97445.45
2019-01-17T22:34:54.054Z,97436.27
2019-01-17T22:37:26.705Z,97452.40
2019-01-17T22:39:56.975Z,97452.16
2019-01-17T22:42:27.405Z,97448.92
2019-01-17T22:45:34.634Z,97448.76
2019-01-17T22:48:05.145Z,97450.09
2019-01-17T22:50:35.539Z,97456.13
2019-01-17T22:53:17.984Z,97465.52
2019-01-17T22:56:07.705Z,97459.97
2019-01-17T22:58:37.959Z,97453.48
2019-01-17T23:01:23.889Z,97455.83
2019-01-17T23:04:13.464Z,97393.91
2019-01-17T23:06:55.860Z,97389.10
2019-01-17T23:09:26.296Z,97461.66
2019-01-17T23:11:56.776Z,97461.53
2019-01-17T23:14:27.297Z,97461.81
2019-01-17T23:16:57.747Z,97465.99
2019-01-17T23:19:28.173Z,97464.79
2019-01-17T23:21:58.654Z,97462.87
2019-01-17T23:24:28.896Z,97467.09
2019-01-17T23:26:59.312Z,97476.75
2019-01-17T23:29:29.757Z,97476.47
2019-01-17T23:32:00.184Z,97478.06
2019-01-17T23:34:30.497Z,97487.47
2019-01-17T23:37:00.837Z,97487.34
2019-01-17T23:39:31.263Z,97488.64
2019-01-17T23:42:02.619Z,97498.44
2019-01-17T23:44:32.954Z,97498.14
2019-01-17T23:47:03.355Z,97497.81
2019-01-17T23:49:33.768Z,97503.17
2019-01-17T23:52:04.151Z,97503.13
2019-01-17T23:54:34.612Z,97498.44
2019-01-17T23:57:05.154Z,97492.09
2019-01-17T23:59:35.423Z,97480.92
